Terminal Aerodrome Forecast
Issued by NWS

Current Version | Previous Version | Text Only | Print | Product List | Glossary Off
Versions: 1 2 3 4 5 6 7 8 9 10 11 12 13 14 15 16 17 18 19 20 21 22 23

000
FTUS41 KPBZ 162326
TAFHLG
TAF
KHLG 162326Z 1700/1724 11003KT P6SM VCSH BKN040
     FM170800 13003KT 2SM -RA OVC006
     FM171500 17007KT 3SM -SHRA OVC008
     FM171800 19009KT 5SM -SHRA OVC010=

USA.gov is the U.S. government's official web portal to all federal, state and local government web resources and services.